createdAt,value
2019-02-14T00:00:04.794Z,47
2019-02-14T00:00:08.193Z,48
2019-02-14T00:00:13.712Z,49
2019-02-14T00:00:16.043Z,50
2019-02-14T00:00:24.898Z,49
2019-02-14T00:00:28.340Z,48
2019-02-14T00:00:33.867Z,47
2019-02-14T00:00:37.298Z,48
2019-02-14T00:00:40.840Z,49
2019-02-14T00:00:46.375Z,50
2019-02-14T00:00:49.958Z,49
2019-02-14T00:00:54.076Z,50
2019-02-14T00:01:03.177Z,48
2019-02-14T00:01:06.546Z,49
2019-02-14T00:01:09.875Z,48
2019-02-14T00:01:14.360Z,49
2019-02-14T00:01:17.823Z,50
2019-02-14T00:01:26.731Z,49
2019-02-14T00:01:30.353Z,50
2019-02-14T00:01:32.631Z,52
2019-02-14T00:01:34.970Z,51
2019-02-14T00:01:37.237Z,50
2019-02-14T00:01:45.147Z,48
2019-02-14T00:01:48.787Z,49
2019-02-14T00:01:51.107Z,48
2019-02-14T00:01:52.279Z,49
2019-02-14T00:01:55.726Z,47
2019-02-14T00:02:01.406Z,48
2019-02-14T00:02:04.874Z,49
2019-02-14T00:02:07.124Z,48
2019-02-14T00:02:12.981Z,47
2019-02-14T00:02:15.267Z,48
2019-02-14T00:02:18.594Z,49
2019-02-14T00:02:24.206Z,50
2019-02-14T00:02:26.412Z,49
2019-02-14T00:02:31.785Z,50
2019-02-14T00:02:36.279Z,48
2019-02-14T00:02:54.298Z,49
2019-02-14T00:02:56.553Z,48
2019-02-14T00:03:04.489Z,47
2019-02-14T00:03:13.689Z,46
2019-02-14T00:03:30.948Z,45
2019-02-14T00:03:33.247Z,46
2019-02-14T00:03:35.508Z,47
2019-02-14T00:03:37.861Z,48
2019-02-14T00:03:45.704Z,47
2019-02-14T00:03:47.990Z,48
2019-02-14T00:03:49.579Z,47
2019-02-14T00:04:01.933Z,46
2019-02-14T00:04:05.749Z,45
2019-02-14T00:04:07.960Z,46
2019-02-14T00:04:10.479Z,45
2019-02-14T00:04:12.699Z,44
2019-02-14T00:04:16.041Z,46
2019-02-14T00:04:21.625Z,45
2019-02-14T00:04:23.920Z,44
2019-02-14T00:04:27.306Z,45
2019-02-14T00:04:30.624Z,44
2019-02-14T00:04:31.793Z,45
2019-02-14T00:04:37.370Z,44
2019-02-14T00:04:39.659Z,45
2019-02-14T00:04:43.002Z,46
2019-02-14T00:04:45.252Z,45
2019-02-14T00:04:47.552Z,46
2019-02-14T00:04:48.721Z,45
2019-02-14T00:04:54.268Z,44
2019-02-14T00:04:56.631Z,43
2019-02-14T00:04:58.914Z,44
2019-02-14T00:05:03.941Z,45
2019-02-14T00:05:06.188Z,46
2019-02-14T00:05:24.861Z,45
2019-02-14T00:05:33.398Z,47
2019-02-14T00:05:37.891Z,46
2019-02-14T00:05:41.237Z,45
2019-02-14T00:05:43.518Z,46
2019-02-14T00:05:47.946Z,45
2019-02-14T00:05:52.397Z,46
2019-02-14T00:05:55.827Z,45
2019-02-14T00:05:56.995Z,46
2019-02-14T00:05:58.114Z,45
2019-02-14T00:06:00.339Z,44
2019-02-14T00:06:02.550Z,43
2019-02-14T00:06:11.408Z,45
2019-02-14T00:06:15.910Z,46
2019-02-14T00:06:18.196Z,47
2019-02-14T00:06:21.585Z,46
2019-02-14T00:06:23.913Z,47
2019-02-14T00:06:28.472Z,46
2019-02-14T00:06:31.726Z,47
2019-02-14T00:06:36.180Z,46
2019-02-14T00:06:41.792Z,47
2019-02-14T00:06:47.458Z,46
2019-02-14T00:06:53.160Z,47
2019-02-14T00:07:02.297Z,46
2019-02-14T00:07:10.051Z,45
2019-02-14T00:07:12.370Z,44
2019-02-14T00:07:14.630Z,45
2019-02-14T00:07:21.300Z,46
2019-02-14T00:07:23.576Z,47
2019-02-14T00:07:25.882Z,46
2019-02-14T00:07:29.317Z,45
2019-02-14T00:07:37.066Z,46
2019-02-14T00:07:45.912Z,47
2019-02-14T00:07:51.472Z,46
2019-02-14T00:07:52.619Z,47
2019-02-14T00:07:53.736Z,46
2019-02-14T00:07:57.086Z,45
2019-02-14T00:08:01.526Z,46
2019-02-14T00:08:03.733Z,47
2019-02-14T00:08:06.028Z,46
2019-02-14T00:08:09.430Z,47
2019-02-14T00:08:11.661Z,48
2019-02-14T00:08:13.888Z,49
2019-02-14T00:08:18.408Z,48
2019-02-14T00:08:20.692Z,47
2019-02-14T00:08:22.904Z,46
2019-02-14T00:08:25.227Z,45
2019-02-14T00:08:28.563Z,44
2019-02-14T00:08:33.111Z,45
2019-02-14T00:08:36.563Z,46
2019-02-14T00:08:38.752Z,44
2019-02-14T00:08:45.193Z,45
2019-02-14T00:08:50.576Z,46
2019-02-14T00:08:57.289Z,47
2019-02-14T00:09:02.915Z,48
2019-02-14T00:09:05.167Z,46
2019-02-14T00:09:11.904Z,45
2019-02-14T00:09:13.060Z,44
2019-02-14T00:09:18.589Z,43
2019-02-14T00:09:21.986Z,44
2019-02-14T00:09:27.463Z,46
2019-02-14T00:09:36.350Z,44
2019-02-14T00:09:43.016Z,46
2019-02-14T00:09:45.264Z,47
2019-02-14T00:09:49.833Z,46
2019-02-14T00:09:56.830Z,45
2019-02-14T00:09:59.054Z,44
2019-02-14T00:10:03.752Z,45
2019-02-14T00:10:04.928Z,44
2019-02-14T00:10:10.562Z,45
2019-02-14T00:10:12.826Z,44
2019-02-14T00:10:16.123Z,43
2019-02-14T00:10:20.655Z,42
2019-02-14T00:10:26.190Z,43
2019-02-14T00:10:29.473Z,42
2019-02-14T00:10:32.791Z,43
2019-02-14T00:10:35.061Z,44
2019-02-14T00:10:37.304Z,45
2019-02-14T00:10:39.528Z,46
2019-02-14T00:10:41.829Z,45
2019-02-14T00:10:45.135Z,44
2019-02-14T00:10:48.583Z,43
2019-02-14T00:10:53.359Z,44
2019-02-14T00:10:56.698Z,43
2019-02-14T00:11:00.118Z,45
2019-02-14T00:11:02.432Z,46
2019-02-14T00:11:03.580Z,44
2019-02-14T00:11:08.119Z,45
2019-02-14T00:11:11.599Z,44
2019-02-14T00:11:14.903Z,45
2019-02-14T00:11:18.248Z,46
2019-02-14T00:11:21.613Z,48
2019-02-14T00:11:28.367Z,47
2019-02-14T00:11:31.775Z,46
2019-02-14T00:11:34.111Z,45
2019-02-14T00:11:36.352Z,46
2019-02-14T00:11:40.694Z,45
2019-02-14T00:11:42.974Z,44
2019-02-14T00:11:49.625Z,43
2019-02-14T00:12:02.485Z,44
2019-02-14T00:12:10.659Z,45
2019-02-14T00:12:49.466Z,44
2019-02-14T00:12:58.264Z,42
2019-02-14T00:13:01.656Z,43
2019-02-14T00:13:05.043Z,44
2019-02-14T00:13:08.467Z,46
2019-02-14T00:13:10.790Z,45
2019-02-14T00:13:11.936Z,46
2019-02-14T00:13:15.317Z,48
2019-02-14T00:13:18.699Z,49
2019-02-14T00:13:20.961Z,48
2019-02-14T00:13:26.551Z,47
2019-02-14T00:13:28.886Z,46
2019-02-14T00:13:32.162Z,47
2019-02-14T00:13:34.392Z,46
2019-02-14T00:13:38.976Z,45
2019-02-14T00:13:43.360Z,43
2019-02-14T00:13:49.027Z,45
2019-02-14T00:13:52.474Z,44
2019-02-14T00:13:58.982Z,43
2019-02-14T00:14:01.146Z,44
2019-02-14T00:14:04.510Z,45
2019-02-14T00:14:10.084Z,44
2019-02-14T00:14:12.315Z,45
2019-02-14T00:14:15.799Z,46
2019-02-14T00:14:18.151Z,47
2019-02-14T00:14:20.423Z,48
2019-02-14T00:14:25.995Z,47
2019-02-14T00:14:28.258Z,49
2019-02-14T00:14:31.614Z,48
2019-02-14T00:14:34.937Z,49
2019-02-14T00:14:37.236Z,48
2019-02-14T00:14:39.469Z,47
2019-02-14T00:14:42.762Z,46
2019-02-14T00:14:45.001Z,47
2019-02-14T00:14:47.229Z,46
2019-02-14T00:14:50.540Z,45
2019-02-14T00:14:53.892Z,46
2019-02-14T00:15:00.561Z,47
2019-02-14T00:15:03.901Z,46
2019-02-14T00:15:06.146Z,47
2019-02-14T00:15:07.320Z,46
2019-02-14T00:15:09.491Z,47
2019-02-14T00:15:10.618Z,46
2019-02-14T00:15:28.305Z,47
2019-02-14T00:15:30.611Z,46
2019-02-14T00:15:33.934Z,45
2019-02-14T00:15:38.361Z,46
2019-02-14T00:15:43.959Z,45
2019-02-14T00:15:47.343Z,46
2019-02-14T00:15:48.526Z,47
2019-02-14T00:15:50.780Z,46
2019-02-14T00:15:53.019Z,45
2019-02-14T00:15:57.525Z,46
2019-02-14T00:15:58.665Z,45
2019-02-14T00:16:00.974Z,44
2019-02-14T00:16:03.222Z,45
2019-02-14T00:16:05.424Z,46
2019-02-14T00:16:06.481Z,45
2019-02-14T00:16:07.526Z,44
2019-02-14T00:16:12.023Z,45
2019-02-14T00:16:14.339Z,46
2019-02-14T00:16:19.887Z,45
2019-02-14T00:16:21.082Z,46
2019-02-14T00:16:24.416Z,45
2019-02-14T00:16:27.673Z,44
2019-02-14T00:16:29.975Z,45
2019-02-14T00:16:33.404Z,46
2019-02-14T00:16:40.079Z,47
2019-02-14T00:16:42.314Z,48
2019-02-14T00:16:45.674Z,47
2019-02-14T00:16:49.035Z,48
2019-02-14T00:16:51.302Z,47
2019-02-14T00:16:53.597Z,46
2019-02-14T00:16:55.853Z,47
2019-02-14T00:16:56.972Z,46
2019-02-14T00:16:59.236Z,47
2019-02-14T00:17:02.624Z,46
2019-02-14T00:17:07.119Z,45
2019-02-14T00:17:09.336Z,46
2019-02-14T00:17:11.623Z,45
2019-02-14T00:17:13.886Z,44
2019-02-14T00:17:16.150Z,45
2019-02-14T00:17:19.584Z,46
2019-02-14T00:17:21.872Z,48
2019-02-14T00:17:25.353Z,49
2019-02-14T00:17:27.673Z,48
2019-02-14T00:17:28.819Z,49
2019-02-14T00:17:31.112Z,50
2019-02-14T00:17:34.449Z,49
2019-02-14T00:17:36.753Z,47
2019-02-14T00:17:40.138Z,48
2019-02-14T00:17:43.503Z,47
2019-02-14T00:17:46.820Z,46
2019-02-14T00:17:49.119Z,45
2019-02-14T00:17:54.704Z,47
2019-02-14T00:17:58.094Z,48
2019-02-14T00:18:00.378Z,49
2019-02-14T00:18:02.676Z,48
2019-02-14T00:18:07.211Z,47
2019-02-14T00:18:11.805Z,45
2019-02-14T00:18:14.027Z,44
2019-02-14T00:18:18.419Z,43
2019-02-14T00:18:23.761Z,44
2019-02-14T00:18:26.034Z,43
2019-02-14T00:18:28.252Z,42
2019-02-14T00:18:31.649Z,44
2019-02-14T00:18:35.061Z,43
2019-02-14T00:18:40.675Z,44
2019-02-14T00:18:44.056Z,46
2019-02-14T00:18:47.436Z,47
2019-02-14T00:18:50.763Z,46
2019-02-14T00:18:54.144Z,45
2019-02-14T00:18:56.385Z,46
2019-02-14T00:18:58.174Z,45
2019-02-14T00:19:02.160Z,46
2019-02-14T00:19:06.642Z,45
2019-02-14T00:19:10.054Z,44
2019-02-14T00:19:12.337Z,43
2019-02-14T00:19:16.763Z,44
2019-02-14T00:19:19.134Z,45
2019-02-14T00:19:23.715Z,44
2019-02-14T00:19:28.121Z,45
2019-02-14T00:19:30.503Z,44
2019-02-14T00:19:33.873Z,43
2019-02-14T00:19:38.373Z,44
2019-02-14T00:19:41.748Z,43
2019-02-14T00:19:48.378Z,44
2019-02-14T00:19:53.932Z,46
2019-02-14T00:19:59.544Z,45
2019-02-14T00:20:06.335Z,46
2019-02-14T00:20:09.728Z,47
2019-02-14T00:20:11.985Z,48
2019-02-14T00:20:16.433Z,46
2019-02-14T00:20:20.875Z,45
2019-02-14T00:20:24.124Z,46
2019-02-14T00:20:27.404Z,45
2019-02-14T00:20:29.707Z,44
2019-02-14T00:20:31.901Z,45
2019-02-14T00:20:35.452Z,44
2019-02-14T00:20:38.857Z,43
2019-02-14T00:20:39.915Z,44
2019-02-14T00:20:42.034Z,45
2019-02-14T00:20:46.480Z,47
2019-02-14T00:20:49.848Z,48
2019-02-14T00:20:52.129Z,47
2019-02-14T00:20:57.633Z,46
2019-02-14T00:21:09.494Z,47
2019-02-14T00:21:11.807Z,46
2019-02-14T00:21:16.159Z,45
2019-02-14T00:21:19.512Z,44
2019-02-14T00:21:21.781Z,43
2019-02-14T00:21:22.930Z,44
2019-02-14T00:21:27.269Z,45
2019-02-14T00:21:31.723Z,46
2019-02-14T00:21:34.011Z,47
2019-02-14T00:21:37.368Z,49
2019-02-14T00:21:40.968Z,48
2019-02-14T00:21:46.524Z,47
2019-02-14T00:21:48.832Z,46
2019-02-14T00:21:49.988Z,47
2019-02-14T00:21:53.316Z,46
2019-02-14T00:21:56.745Z,45
2019-02-14T00:22:27.482Z,44
2019-02-14T00:22:30.954Z,49
2019-02-14T00:22:34.396Z,47
2019-02-14T00:22:41.891Z,48
2019-02-14T00:22:44.141Z,47
2019-02-14T00:22:47.565Z,46
2019-02-14T00:22:49.763Z,47
2019-02-14T00:22:51.991Z,48
2019-02-14T00:22:55.397Z,47
2019-02-14T00:22:56.520Z,48
2019-02-14T00:22:59.918Z,50
2019-02-14T00:23:02.200Z,49
2019-02-14T00:23:04.482Z,48
2019-02-14T00:23:11.230Z,46
2019-02-14T00:23:13.502Z,47
2019-02-14T00:23:15.796Z,46
2019-02-14T00:23:18.064Z,45
2019-02-14T00:23:20.316Z,46
2019-02-14T00:23:24.637Z,47
2019-02-14T00:23:28.068Z,46
2019-02-14T00:23:31.551Z,47
2019-02-14T00:23:38.308Z,46
2019-02-14T00:23:39.483Z,47
2019-02-14T00:23:41.729Z,46
2019-02-14T00:23:42.822Z,47
2019-02-14T00:23:46.180Z,45
2019-02-14T00:23:49.588Z,47
2019-02-14T00:23:51.891Z,46
2019-02-14T00:23:56.256Z,45
2019-02-14T00:23:59.654Z,44
2019-02-14T00:24:04.175Z,45
2019-02-14T00:24:08.601Z,46
2019-02-14T00:24:11.976Z,47
2019-02-14T00:24:14.255Z,48
2019-02-14T00:24:17.640Z,49
2019-02-14T00:24:22.098Z,48
2019-02-14T00:24:25.454Z,47
2019-02-14T00:24:28.860Z,46
2019-02-14T00:24:31.142Z,47
2019-02-14T00:24:35.625Z,46
2019-02-14T00:24:37.829Z,47
2019-02-14T00:24:41.170Z,45
2019-02-14T00:24:44.591Z,44
2019-02-14T00:24:45.792Z,45
2019-02-14T00:24:47.953Z,46
2019-02-14T00:24:51.370Z,44
2019-02-14T00:24:53.654Z,45
2019-02-14T00:24:54.734Z,44
2019-02-14T00:24:55.860Z,45
2019-02-14T00:24:59.161Z,46
2019-02-14T00:25:01.444Z,47
2019-02-14T00:25:05.775Z,46
2019-02-14T00:25:09.145Z,45
2019-02-14T00:25:13.638Z,46
2019-02-14T00:25:15.845Z,44
2019-02-14T00:25:19.234Z,46
2019-02-14T00:25:21.442Z,45
2019-02-14T00:25:24.762Z,46
2019-02-14T00:25:28.147Z,45
2019-02-14T00:25:31.465Z,46
2019-02-14T00:25:38.070Z,47
2019-02-14T00:25:42.474Z,46
2019-02-14T00:25:45.939Z,45
2019-02-14T00:25:48.241Z,44
2019-02-14T00:25:51.682Z,43
2019-02-14T00:25:55.015Z,44
2019-02-14T00:25:58.413Z,43
2019-02-14T00:25:59.535Z,44
2019-02-14T00:26:07.326Z,45
2019-02-14T00:26:10.651Z,48
2019-02-14T00:26:14.024Z,46
2019-02-14T00:26:17.340Z,45
2019-02-14T00:26:19.571Z,44
2019-02-14T00:26:20.753Z,45
2019-02-14T00:26:21.847Z,44
2019-02-14T00:26:24.051Z,45
2019-02-14T00:26:26.334Z,46
2019-02-14T00:26:27.548Z,44
2019-02-14T00:26:30.872Z,45
2019-02-14T00:26:33.144Z,46
2019-02-14T00:26:35.415Z,47
2019-02-14T00:26:36.617Z,46
2019-02-14T00:26:42.132Z,47
2019-02-14T00:26:44.403Z,46
2019-02-14T00:26:46.656Z,45
2019-02-14T00:26:48.863Z,46
2019-02-14T00:26:53.349Z,45
2019-02-14T00:26:54.529Z,46
2019-02-14T00:26:55.645Z,45
2019-02-14T00:26:57.996Z,44
2019-02-14T00:27:02.419Z,46
2019-02-14T00:27:04.684Z,45
2019-02-14T00:27:05.739Z,46
2019-02-14T00:27:11.338Z,47
2019-02-14T00:27:13.567Z,48
2019-02-14T00:27:18.064Z,47
2019-02-14T00:27:21.321Z,46
2019-02-14T00:27:25.726Z,45
2019-02-14T00:27:31.270Z,46
2019-02-14T00:27:42.345Z,45
2019-02-14T00:27:43.513Z,46
2019-02-14T00:27:48.008Z,47
2019-02-14T00:27:51.573Z,48
2019-02-14T00:27:57.441Z,47
2019-02-14T00:28:00.823Z,46
2019-02-14T00:28:04.159Z,47
2019-02-14T00:28:06.471Z,46
2019-02-14T00:28:09.857Z,45
2019-02-14T00:28:15.897Z,44
2019-02-14T00:28:19.283Z,45
2019-02-14T00:28:23.841Z,46
2019-02-14T00:28:32.620Z,47
2019-02-14T00:28:36.039Z,46
2019-02-14T00:28:39.400Z,47
2019-02-14T00:28:43.899Z,48
2019-02-14T00:28:47.208Z,47
2019-02-14T00:28:49.460Z,46
2019-02-14T00:28:51.742Z,45
2019-02-14T00:28:56.119Z,46
2019-02-14T00:28:59.544Z,45
2019-02-14T00:29:02.896Z,46
2019-02-14T00:29:06.272Z,45
2019-02-14T00:29:09.613Z,44
2019-02-14T00:29:12.864Z,45
2019-02-14T00:29:15.892Z,44
2019-02-14T00:29:19.335Z,43
2019-02-14T00:29:21.785Z,44
2019-02-14T00:29:25.076Z,45
2019-02-14T00:29:28.389Z,43
2019-02-14T00:29:32.840Z,44
2019-02-14T00:29:35.256Z,45
2019-02-14T00:29:36.316Z,44
2019-02-14T00:29:39.111Z,45
2019-02-14T00:29:42.416Z,44
2019-02-14T00:29:44.617Z,45
2019-02-14T00:29:50.138Z,46
2019-02-14T00:29:54.734Z,45
2019-02-14T00:30:02.527Z,46
2019-02-14T00:30:05.039Z,45
2019-02-14T00:30:11.649Z,44
2019-02-14T00:30:14.922Z,45
2019-02-14T00:30:17.585Z,44
2019-02-14T00:30:22.182Z,46
2019-02-14T00:30:25.525Z,47
2019-02-14T00:30:29.988Z,48
2019-02-14T00:30:38.797Z,49
2019-02-14T00:30:41.031Z,48
2019-02-14T00:30:45.572Z,49
2019-02-14T00:30:47.860Z,48
2019-02-14T00:30:50.166Z,47
2019-02-14T00:30:52.389Z,48
2019-02-14T00:30:55.816Z,47
2019-02-14T00:30:59.114Z,46
2019-02-14T00:31:00.246Z,47
2019-02-14T00:31:01.332Z,46
2019-02-14T00:31:03.587Z,47
2019-02-14T00:31:05.839Z,46
2019-02-14T00:31:09.130Z,47
2019-02-14T00:31:11.396Z,48
2019-02-14T00:31:18.377Z,49
2019-02-14T00:31:21.861Z,50
2019-02-14T00:31:24.061Z,49
2019-02-14T00:31:26.335Z,48
2019-02-14T00:31:29.621Z,47
2019-02-14T00:31:31.857Z,46
2019-02-14T00:31:35.334Z,45
2019-02-14T00:31:37.700Z,44
2019-02-14T00:31:38.904Z,45
2019-02-14T00:31:42.261Z,46
2019-02-14T00:31:51.360Z,47
2019-02-14T00:31:58.022Z,48
2019-02-14T00:32:01.347Z,47
2019-02-14T00:32:02.545Z,48
2019-02-14T00:32:03.610Z,47
2019-02-14T00:32:04.690Z,48
2019-02-14T00:32:08.153Z,47
2019-02-14T00:32:11.551Z,48
2019-02-14T00:32:16.239Z,46
2019-02-14T00:32:19.577Z,48
2019-02-14T00:32:26.322Z,49
2019-02-14T00:32:30.825Z,48
2019-02-14T00:32:32.005Z,49
2019-02-14T00:32:35.384Z,50
2019-02-14T00:32:37.712Z,49
2019-02-14T00:32:38.817Z,48
2019-02-14T00:32:44.380Z,47
2019-02-14T00:32:47.740Z,46
2019-02-14T00:32:51.094Z,45
2019-02-14T00:32:54.609Z,47
2019-02-14T00:32:56.884Z,46
2019-02-14T00:32:59.221Z,47
2019-02-14T00:33:01.461Z,46
2019-02-14T00:33:02.649Z,47
2019-02-14T00:33:04.821Z,48
2019-02-14T00:33:08.188Z,47
2019-02-14T00:33:11.662Z,48
2019-02-14T00:33:13.954Z,46
2019-02-14T00:33:16.195Z,47
2019-02-14T00:33:21.826Z,46
2019-02-14T00:33:24.044Z,47
2019-02-14T00:33:26.294Z,46
2019-02-14T00:33:38.441Z,47
2019-02-14T00:33:41.841Z,48
2019-02-14T00:33:46.249Z,49
2019-02-14T00:33:48.523Z,48
2019-02-14T00:33:50.860Z,49
2019-02-14T00:33:53.095Z,48
2019-02-14T00:33:56.485Z,47
2019-02-14T00:33:57.535Z,48
2019-02-14T00:33:58.619Z,47
2019-02-14T00:34:00.844Z,46
2019-02-14T00:34:05.302Z,47
2019-02-14T00:34:10.847Z,48
2019-02-14T00:34:13.042Z,47
2019-02-14T00:34:17.477Z,48
2019-02-14T00:34:20.811Z,47
2019-02-14T00:34:24.142Z,46
2019-02-14T00:34:27.634Z,45
2019-02-14T00:34:32.283Z,47
2019-02-14T00:34:35.654Z,48
2019-02-14T00:34:40.097Z,47
2019-02-14T00:34:42.345Z,48
2019-02-14T00:34:44.865Z,49
2019-02-14T00:34:48.261Z,50
2019-02-14T00:34:53.405Z,49
2019-02-14T00:34:55.675Z,48
2019-02-14T00:35:02.489Z,47
2019-02-14T00:35:09.162Z,46
2019-02-14T00:35:27.092Z,45
2019-02-14T00:35:30.407Z,46
2019-02-14T00:35:31.602Z,45
2019-02-14T00:35:33.772Z,46
2019-02-14T00:35:36.034Z,45
2019-02-14T00:35:38.251Z,46
2019-02-14T00:35:40.562Z,45
2019-02-14T00:35:43.878Z,46
2019-02-14T00:35:47.317Z,47
2019-02-14T00:35:49.565Z,48
2019-02-14T00:35:52.958Z,49
2019-02-14T00:35:55.201Z,48
2019-02-14T00:35:58.592Z,49
2019-02-14T00:36:00.903Z,48
2019-02-14T00:36:05.454Z,49
2019-02-14T00:36:09.950Z,48
2019-02-14T00:36:14.469Z,47
2019-02-14T00:36:17.732Z,46
2019-02-14T00:36:18.875Z,47
2019-02-14T00:36:22.284Z,46
2019-02-14T00:36:25.613Z,45
2019-02-14T00:36:29.048Z,46
2019-02-14T00:36:32.472Z,44
2019-02-14T00:36:34.748Z,45
2019-02-14T00:36:38.178Z,47
2019-02-14T00:36:42.723Z,48
2019-02-14T00:36:45.037Z,47
2019-02-14T00:36:52.788Z,46
2019-02-14T00:36:57.203Z,48
2019-02-14T00:37:00.573Z,47
2019-02-14T00:37:02.874Z,48
2019-02-14T00:37:06.315Z,45
2019-02-14T00:37:13.729Z,46
2019-02-14T00:37:17.209Z,47
2019-02-14T00:37:20.624Z,46
2019-02-14T00:37:28.399Z,47
2019-02-14T00:37:30.727Z,46
2019-02-14T00:37:34.067Z,47
2019-02-14T00:37:42.821Z,48
2019-02-14T00:37:49.636Z,49
2019-02-14T00:37:50.800Z,51
2019-02-14T00:37:53.076Z,50
2019-02-14T00:37:57.920Z,51
2019-02-14T00:38:00.225Z,50
2019-02-14T00:38:03.547Z,48
2019-02-14T00:38:10.107Z,47
2019-02-14T00:38:13.648Z,46
2019-02-14T00:38:16.957Z,47
2019-02-14T00:38:19.185Z,46
2019-02-14T00:38:20.345Z,47
2019-02-14T00:38:23.662Z,46
2019-02-14T00:38:25.944Z,47
2019-02-14T00:38:27.145Z,48
2019-02-14T00:38:29.394Z,47
2019-02-14T00:38:33.854Z,46
2019-02-14T00:38:36.163Z,45
2019-02-14T00:38:38.461Z,46
2019-02-14T00:38:40.705Z,47
2019-02-14T00:38:43.782Z,46
2019-02-14T00:38:46.035Z,45
2019-02-14T00:38:48.194Z,46
2019-02-14T00:38:53.809Z,45
2019-02-14T00:38:57.153Z,46
2019-02-14T00:39:00.608Z,47
2019-02-14T00:39:04.051Z,48
2019-02-14T00:39:08.509Z,47
2019-02-14T00:39:10.725Z,48
2019-02-14T00:39:15.227Z,47
2019-02-14T00:39:21.818Z,46
2019-02-14T00:39:26.355Z,45
2019-02-14T00:39:29.790Z,46
2019-02-14T00:39:36.433Z,45
2019-02-14T00:39:38.660Z,44
2019-02-14T00:39:43.141Z,45
2019-02-14T00:39:46.491Z,44
2019-02-14T00:39:51.936Z,43
2019-02-14T00:39:53.102Z,44
2019-02-14T00:39:57.543Z,45
2019-02-14T00:40:00.912Z,44
2019-02-14T00:40:05.398Z,45
2019-02-14T00:40:08.761Z,46
2019-02-14T00:40:12.129Z,47
2019-02-14T00:40:15.582Z,48
2019-02-14T00:40:26.374Z,49
2019-02-14T00:40:27.530Z,48
2019-02-14T00:40:29.826Z,47
2019-02-14T00:40:33.244Z,46
2019-02-14T00:40:36.653Z,47
2019-02-14T00:40:40.048Z,48
2019-02-14T00:40:41.160Z,47
2019-02-14T00:40:42.306Z,48
2019-02-14T00:40:45.766Z,47
2019-02-14T00:40:53.618Z,46
2019-02-14T00:40:54.819Z,47
2019-02-14T00:40:57.123Z,46
2019-02-14T00:40:59.411Z,47
2019-02-14T00:41:01.605Z,48
2019-02-14T00:41:04.991Z,47
2019-02-14T00:41:08.438Z,46
2019-02-14T00:41:10.795Z,47
2019-02-14T00:41:15.311Z,48
2019-02-14T00:41:18.743Z,47
2019-02-14T00:41:23.206Z,48
2019-02-14T00:41:26.568Z,47
2019-02-14T00:41:28.828Z,48
2019-02-14T00:41:31.118Z,47
2019-02-14T00:41:35.689Z,46
2019-02-14T00:41:39.031Z,47
2019-02-14T00:41:42.575Z,48
2019-02-14T00:41:43.764Z,47
2019-02-14T00:41:45.984Z,48
2019-02-14T00:41:48.200Z,47
2019-02-14T00:41:51.625Z,48
2019-02-14T00:41:53.938Z,47
2019-02-14T00:41:57.349Z,46
2019-02-14T00:41:59.601Z,47
2019-02-14T00:42:01.779Z,48
2019-02-14T00:42:04.074Z,47
2019-02-14T00:42:06.276Z,46
2019-02-14T00:42:09.619Z,47
2019-02-14T00:42:12.988Z,46
2019-02-14T00:42:15.250Z,45
2019-02-14T00:42:19.665Z,47
2019-02-14T00:42:24.081Z,48
2019-02-14T00:42:26.373Z,47
2019-02-14T00:42:29.686Z,48
2019-02-14T00:42:33.087Z,47
2019-02-14T00:42:39.815Z,46
2019-02-14T00:42:45.394Z,47
2019-02-14T00:42:48.804Z,48
2019-02-14T00:42:51.036Z,49
2019-02-14T00:42:53.273Z,50
2019-02-14T00:42:54.453Z,49
2019-02-14T00:43:00.043Z,48
2019-02-14T00:43:04.482Z,47
2019-02-14T00:43:06.649Z,48
2019-02-14T00:43:08.823Z,47
2019-02-14T00:43:12.277Z,46
2019-02-14T00:43:15.789Z,47
2019-02-14T00:43:19.140Z,48
2019-02-14T00:43:24.620Z,47
2019-02-14T00:43:29.118Z,48
2019-02-14T00:43:31.368Z,47
2019-02-14T00:43:34.721Z,46
2019-02-14T00:43:38.093Z,45
2019-02-14T00:43:44.837Z,47
2019-02-14T00:43:49.332Z,48
2019-02-14T00:43:51.696Z,49
2019-02-14T00:43:53.926Z,48
2019-02-14T00:43:55.145Z,49
2019-02-14T00:43:56.233Z,50
2019-02-14T00:44:01.776Z,49
2019-02-14T00:44:06.299Z,48
2019-02-14T00:44:08.599Z,49
2019-02-14T00:44:11.887Z,50
2019-02-14T00:44:14.112Z,49
2019-02-14T00:44:19.699Z,50
2019-02-14T00:44:22.044Z,51
2019-02-14T00:44:28.671Z,45
2019-02-14T00:44:33.576Z,46
2019-02-14T00:44:55.899Z,45
2019-02-14T00:45:00.535Z,44
2019-02-14T00:45:10.494Z,45
2019-02-14T00:45:13.801Z,44
2019-02-14T00:45:14.908Z,45
2019-02-14T00:45:18.225Z,46
2019-02-14T00:45:20.481Z,45
2019-02-14T00:45:22.691Z,46
2019-02-14T00:45:31.499Z,48
2019-02-14T00:45:36.967Z,47
2019-02-14T00:45:42.659Z,46
2019-02-14T00:45:45.007Z,47
2019-02-14T00:45:48.357Z,46
2019-02-14T00:45:54.057Z,45
2019-02-14T00:45:58.615Z,46
2019-02-14T00:46:02.006Z,47
2019-02-14T00:46:04.249Z,48
2019-02-14T00:46:08.654Z,49
2019-02-14T00:46:16.379Z,48
2019-02-14T00:46:20.941Z,47
2019-02-14T00:46:22.109Z,46
2019-02-14T00:46:27.598Z,45
2019-02-14T00:46:29.853Z,44
2019-02-14T00:46:39.863Z,45
2019-02-14T00:46:42.151Z,46
2019-02-14T00:46:43.374Z,47
2019-02-14T00:46:47.841Z,48
2019-02-14T00:46:51.155Z,49
2019-02-14T00:46:53.429Z,48
2019-02-14T00:47:01.338Z,49
2019-02-14T00:47:05.775Z,48
2019-02-14T00:47:07.988Z,47
2019-02-14T00:47:23.390Z,46
2019-02-14T00:47:32.261Z,47
2019-02-14T00:47:37.783Z,48
2019-02-14T00:47:43.419Z,47
2019-02-14T00:47:44.618Z,48
2019-02-14T00:47:46.792Z,47
2019-02-14T00:47:50.144Z,46
2019-02-14T00:47:55.778Z,47
2019-02-14T00:47:58.048Z,46
2019-02-14T00:48:01.393Z,45
2019-02-14T00:48:08.192Z,46
2019-02-14T00:48:16.024Z,44
2019-02-14T00:48:22.683Z,45
2019-02-14T00:48:24.900Z,46
2019-02-14T00:48:28.299Z,44
2019-02-14T00:48:32.685Z,46
2019-02-14T00:48:44.950Z,47
2019-02-14T00:48:49.767Z,46
2019-02-14T00:48:56.441Z,45
2019-02-14T00:49:04.227Z,44
2019-02-14T00:49:11.035Z,45
2019-02-14T00:49:14.403Z,46
2019-02-14T00:49:17.770Z,47
2019-02-14T00:49:21.117Z,48
2019-02-14T00:49:27.841Z,47
2019-02-14T00:49:34.445Z,46
2019-02-14T00:49:43.270Z,45
2019-02-14T00:49:47.614Z,44
2019-02-14T00:49:50.920Z,45
2019-02-14T00:49:53.176Z,44
2019-02-14T00:49:59.789Z,45
2019-02-14T00:50:02.038Z,44
2019-02-14T00:50:04.356Z,45
2019-02-14T00:50:07.625Z,46
2019-02-14T00:50:11.069Z,45
2019-02-14T00:50:14.474Z,46
2019-02-14T00:50:17.940Z,45
2019-02-14T00:50:19.050Z,44
2019-02-14T00:50:23.591Z,43
2019-02-14T00:50:26.958Z,44
2019-02-14T00:50:29.278Z,43
2019-02-14T00:50:31.574Z,42
2019-02-14T00:50:33.778Z,43
2019-02-14T00:50:37.138Z,42
2019-02-14T00:50:39.335Z,43
2019-02-14T00:50:42.620Z,42
2019-02-14T00:50:46.082Z,43
2019-02-14T00:50:51.599Z,44
2019-02-14T00:50:54.991Z,45
2019-02-14T00:50:56.167Z,44
2019-02-14T00:51:00.721Z,43
2019-02-14T00:51:02.969Z,42
2019-02-14T00:51:07.340Z,43
2019-02-14T00:51:10.871Z,44
2019-02-14T00:51:16.360Z,45
2019-02-14T00:51:18.624Z,46
2019-02-14T00:51:20.890Z,47
2019-02-14T00:51:23.147Z,46
2019-02-14T00:51:32.141Z,45
2019-02-14T00:51:43.561Z,44
2019-02-14T00:51:57.331Z,43
2019-02-14T00:52:01.754Z,44
2019-02-14T00:52:08.480Z,42
2019-02-14T00:52:11.788Z,41
2019-02-14T00:52:15.149Z,42
2019-02-14T00:52:18.522Z,43
2019-02-14T00:52:21.871Z,42
2019-02-14T00:52:27.310Z,44
2019-02-14T00:52:30.756Z,45
2019-02-14T00:52:34.147Z,44
2019-02-14T00:52:36.379Z,45
2019-02-14T00:52:38.625Z,46
2019-02-14T00:52:41.998Z,45
2019-02-14T00:52:44.272Z,46
2019-02-14T00:52:48.684Z,47
2019-02-14T00:52:53.012Z,46
2019-02-14T00:52:57.451Z,45
2019-02-14T00:53:00.822Z,44
2019-02-14T00:53:03.113Z,43
2019-02-14T00:53:05.270Z,42
2019-02-14T00:53:13.163Z,43
2019-02-14T00:53:27.500Z,44
2019-02-14T00:53:30.841Z,45
2019-02-14T00:53:35.288Z,44
2019-02-14T00:53:37.528Z,43
2019-02-14T00:53:39.839Z,44
2019-02-14T00:53:43.256Z,45
2019-02-14T00:53:52.001Z,46
2019-02-14T00:53:54.284Z,45
2019-02-14T00:54:02.056Z,44
2019-02-14T00:54:05.394Z,43
2019-02-14T00:54:09.868Z,44
2019-02-14T00:54:14.315Z,45
2019-02-14T00:54:16.625Z,46
2019-02-14T00:54:21.004Z,45
2019-02-14T00:54:23.200Z,46
2019-02-14T00:54:27.674Z,45
2019-02-14T00:54:29.890Z,46
2019-02-14T00:54:35.438Z,45
2019-02-14T00:54:37.641Z,48
2019-02-14T00:54:40.997Z,49
2019-02-14T00:54:44.330Z,48
2019-02-14T00:54:46.522Z,47